sensor_id;sensor_type;location;lat;lon;timestamp;temperature;humidity
65460;DHT22;52058;49.822;6.754;2023-03-01T00:00:04;-1.90;82.63
65460;DHT22;52058;49.822;6.754;2023-03-01T00:02:32;-1.90;82.78
65460;DHT22;52058;49.822;6.754;2023-03-01T00:05:00;-1.90;82.85
65460;DHT22;52058;49.822;6.754;2023-03-01T00:07:26;-1.93;83.01
65460;DHT22;52058;49.822;6.754;2023-03-01T00:09:53;-1.97;82.94
65460;DHT22;52058;49.822;6.754;2023-03-01T00:12:20;-1.98;82.91
65460;DHT22;52058;49.822;6.754;2023-03-01T00:14:46;-2.05;82.87
65460;DHT22;52058;49.822;6.754;2023-03-01T00:17:13;-2.05;83.05
65460;DHT22;52058;49.822;6.754;2023-03-01T00:19:39;-2.08;83.02
65460;DHT22;52058;49.822;6.754;2023-03-01T00:22:07;-2.05;83.07
65460;DHT22;52058;49.822;6.754;2023-03-01T00:24:34;-2.08;82.99
65460;DHT22;52058;49.822;6.754;2023-03-01T00:27:00;-2.08;83.21
65460;DHT22;52058;49.822;6.754;2023-03-01T00:29:27;-2.01;83.12
65460;DHT22;52058;49.822;6.754;2023-03-01T00:31:54;-1.99;82.96
65460;DHT22;52058;49.822;6.754;2023-03-01T00:34:20;-1.97;82.90
65460;DHT22;52058;49.822;6.754;2023-03-01T00:36:47;-2.02;82.99
65460;DHT22;52058;49.822;6.754;2023-03-01T00:39:15;-2.01;82.98
65460;DHT22;52058;49.822;6.754;2023-03-01T00:41:42;-2.05;83.05
65460;DHT22;52058;49.822;6.754;2023-03-01T00:44:09;-2.02;83.07
65460;DHT22;52058;49.822;6.754;2023-03-01T00:46:36;-2.01;83.24
65460;DHT22;52058;49.822;6.754;2023-03-01T00:49:03;-2.01;83.39
65460;DHT22;52058;49.822;6.754;2023-03-01T00:51:30;-2.01;83.36
65460;DHT22;52058;49.822;6.754;2023-03-01T00:53:58;-1.97;83.34
65460;DHT22;52058;49.822;6.754;2023-03-01T00:56:27;-1.99;83.20
65460;DHT22;52058;49.822;6.754;2023-03-01T00:58:54;-1.97;83.38
65460;DHT22;52058;49.822;6.754;2023-03-01T01:01:22;-1.97;83.36
65460;DHT22;52058;49.822;6.754;2023-03-01T01:03:50;-1.95;83.36
65460;DHT22;52058;49.822;6.754;2023-03-01T01:06:19;-1.95;83.35
65460;DHT22;52058;49.822;6.754;2023-03-01T01:08:46;-1.94;83.25
65460;DHT22;52058;49.822;6.754;2023-03-01T01:11:14;-1.93;83.29
65460;DHT22;52058;49.822;6.754;2023-03-01T01:13:44;-1.93;83.19
65460;DHT22;52058;49.822;6.754;2023-03-01T01:16:11;-1.93;83.13
65460;DHT22;52058;49.822;6.754;2023-03-01T01:18:38;-1.95;83.21
65460;DHT22;52058;49.822;6.754;2023-03-01T01:21:06;-1.95;83.21
65460;DHT22;52058;49.822;6.754;2023-03-01T01:23:33;-1.93;83.34
65460;DHT22;52058;49.822;6.754;2023-03-01T01:26:04;-1.94;83.35
65460;DHT22;52058;49.822;6.754;2023-03-01T01:28:31;-1.95;83.34
65460;DHT22;52058;49.822;6.754;2023-03-01T01:30:59;-1.95;83.26
65460;DHT22;52058;49.822;6.754;2023-03-01T01:33:26;-1.95;83.38
65460;DHT22;52058;49.822;6.754;2023-03-01T01:35:53;-1.99;83.47
65460;DHT22;52058;49.822;6.754;2023-03-01T01:38:20;-2.01;83.50
65460;DHT22;52058;49.822;6.754;2023-03-01T01:40:47;-2.02;83.53
65460;DHT22;52058;49.822;6.754;2023-03-01T01:43:19;-2.02;83.70
65460;DHT22;52058;49.822;6.754;2023-03-01T01:45:46;-1.98;83.81
65460;DHT22;52058;49.822;6.754;2023-03-01T01:48:17;-1.93;83.87
65460;DHT22;52058;49.822;6.754;2023-03-01T01:50:45;-1.91;84.06
65460;DHT22;52058;49.822;6.754;2023-03-01T01:53:15;-1.90;83.99
65460;DHT22;52058;49.822;6.754;2023-03-01T01:55:47;-1.90;84.10
65460;DHT22;52058;49.822;6.754;2023-03-01T01:58:18;-1.88;84.06
65460;DHT22;52058;49.822;6.754;2023-03-01T02:00:45;-1.87;83.94
65460;DHT22;52058;49.822;6.754;2023-03-01T02:03:17;-1.90;84.08
65460;DHT22;52058;49.822;6.754;2023-03-01T02:05:48;-1.91;84.04
65460;DHT22;52058;49.822;6.754;2023-03-01T02:08:18;-1.91;84.21
65460;DHT22;52058;49.822;6.754;2023-03-01T02:10:46;-1.94;84.54
65460;DHT22;52058;49.822;6.754;2023-03-01T02:13:13;-1.98;84.72
65460;DHT22;52058;49.822;6.754;2023-03-01T02:15:41;-2.04;84.55
65460;DHT22;52058;49.822;6.754;2023-03-01T02:18:10;-2.06;84.56
65460;DHT22;52058;49.822;6.754;2023-03-01T02:20:47;-2.08;84.39
65460;DHT22;52058;49.822;6.754;2023-03-01T02:23:17;-2.14;84.49
65460;DHT22;52058;49.822;6.754;2023-03-01T02:25:48;-2.16;84.81
65460;DHT22;52058;49.822;6.754;2023-03-01T02:28:25;-2.21;85.07
65460;DHT22;52058;49.822;6.754;2023-03-01T02:30:53;-2.21;85.28
65460;DHT22;52058;49.822;6.754;2023-03-01T02:33:38;-2.21;85.40
65460;DHT22;52058;49.822;6.754;2023-03-01T02:36:08;-2.24;85.48
65460;DHT22;52058;49.822;6.754;2023-03-01T02:38:36;-2.21;85.49
65460;DHT22;52058;49.822;6.754;2023-03-01T02:41:04;-2.25;85.65
65460;DHT22;52058;49.822;6.754;2023-03-01T02:43:34;-2.21;85.55
65460;DHT22;52058;49.822;6.754;2023-03-01T02:46:04;-2.21;85.60
65460;DHT22;52058;49.822;6.754;2023-03-01T02:48:40;-2.18;85.47
65460;DHT22;52058;49.822;6.754;2023-03-01T02:51:12;-2.12;85.32
65460;DHT22;52058;49.822;6.754;2023-03-01T02:53:49;-2.05;85.24
65460;DHT22;52058;49.822;6.754;2023-03-01T02:56:20;-2.06;85.25
65460;DHT22;52058;49.822;6.754;2023-03-01T02:58:49;-2.01;85.13
65460;DHT22;52058;49.822;6.754;2023-03-01T03:01:17;-1.93;85.01
65460;DHT22;52058;49.822;6.754;2023-03-01T03:03:44;-1.91;84.91
65460;DHT22;52058;49.822;6.754;2023-03-01T03:06:10;-1.87;84.79
65460;DHT22;52058;49.822;6.754;2023-03-01T03:08:37;-1.73;84.39
65460;DHT22;52058;49.822;6.754;2023-03-01T03:11:04;-1.68;84.11
65460;DHT22;52058;49.822;6.754;2023-03-01T03:13:30;-1.63;84.23
65460;DHT22;52058;49.822;6.754;2023-03-01T03:15:58;-1.59;84.07
65460;DHT22;52058;49.822;6.754;2023-03-01T03:18:25;-1.56;83.98
65460;DHT22;52058;49.822;6.754;2023-03-01T03:20:53;-1.53;83.87
65460;DHT22;52058;49.822;6.754;2023-03-01T03:23:20;-1.45;83.66
65460;DHT22;52058;49.822;6.754;2023-03-01T03:25:48;-1.40;83.55
65460;DHT22;52058;49.822;6.754;2023-03-01T03:28:15;-1.31;82.96
65460;DHT22;52058;49.822;6.754;2023-03-01T03:30:43;-1.20;82.73
65460;DHT22;52058;49.822;6.754;2023-03-01T03:33:12;-1.12;82.53
65460;DHT22;52058;49.822;6.754;2023-03-01T03:35:40;-1.06;82.49
65460;DHT22;52058;49.822;6.754;2023-03-01T03:38:10;-0.97;82.12
65460;DHT22;52058;49.822;6.754;2023-03-01T03:40:42;-0.92;81.75
65460;DHT22;52058;49.822;6.754;2023-03-01T03:43:10;-0.89;81.57
65460;DHT22;52058;49.822;6.754;2023-03-01T03:45:37;-0.87;81.67
65460;DHT22;52058;49.822;6.754;2023-03-01T03:48:06;-0.85;81.63
65460;DHT22;52058;49.822;6.754;2023-03-01T03:50:35;-0.80;81.42
65460;DHT22;52058;49.822;6.754;2023-03-01T03:53:04;-0.77;81.28
65460;DHT22;52058;49.822;6.754;2023-03-01T03:55:31;-0.78;81.32
65460;DHT22;52058;49.822;6.754;2023-03-01T03:57:59;-0.77;81.38
65460;DHT22;52058;49.822;6.754;2023-03-01T04:00:32;-0.80;81.24
65460;DHT22;52058;49.822;6.754;2023-03-01T04:02:59;-0.78;81.15
65460;DHT22;52058;49.822;6.754;2023-03-01T04:05:27;-0.78;81.25
65460;DHT22;52058;49.822;6.754;2023-03-01T04:07:55;-0.77;81.31
65460;DHT22;52058;49.822;6.754;2023-03-01T04:10:34;-0.80;81.29
65460;DHT22;52058;49.822;6.754;2023-03-01T04:13:01;-0.75;81.37
65460;DHT22;52058;49.822;6.754;2023-03-01T04:15:27;-0.80;81.44
65460;DHT22;52058;49.822;6.754;2023-03-01T04:17:55;-0.81;81.56
65460;DHT22;52058;49.822;6.754;2023-03-01T04:20:23;-0.89;81.77
65460;DHT22;52058;49.822;6.754;2023-03-01T04:22:52;-0.91;81.88
65460;DHT22;52058;49.822;6.754;2023-03-01T04:25:20;-0.91;81.88
65460;DHT22;52058;49.822;6.754;2023-03-01T04:27:46;-0.95;81.86
65460;DHT22;52058;49.822;6.754;2023-03-01T04:30:13;-0.97;82.08
65460;DHT22;52058;49.822;6.754;2023-03-01T04:32:40;-1.01;82.19
65460;DHT22;52058;49.822;6.754;2023-03-01T04:35:07;-0.98;82.22
65460;DHT22;52058;49.822;6.754;2023-03-01T04:37:34;-0.99;82.40
65460;DHT22;52058;49.822;6.754;2023-03-01T04:40:01;-1.01;82.35
65460;DHT22;52058;49.822;6.754;2023-03-01T04:42:38;-0.95;82.30
65460;DHT22;52058;49.822;6.754;2023-03-01T04:45:06;-0.94;82.18
65460;DHT22;52058;49.822;6.754;2023-03-01T04:47:38;-0.92;82.21
65460;DHT22;52058;49.822;6.754;2023-03-01T04:50:06;-0.89;82.21
65460;DHT22;52058;49.822;6.754;2023-03-01T04:52:33;-0.89;82.06
65460;DHT22;52058;49.822;6.754;2023-03-01T04:54:59;-0.88;82.02
65460;DHT22;52058;49.822;6.754;2023-03-01T04:57:26;-0.83;82.03
65460;DHT22;52058;49.822;6.754;2023-03-01T04:59:54;-0.85;81.99
65460;DHT22;52058;49.822;6.754;2023-03-01T05:02:20;-0.84;82.06
65460;DHT22;52058;49.822;6.754;2023-03-01T05:04:47;-0.85;82.02
65460;DHT22;52058;49.822;6.754;2023-03-01T05:07:13;-0.83;82.09
65460;DHT22;52058;49.822;6.754;2023-03-01T05:09:44;-0.83;82.07
65460;DHT22;52058;49.822;6.754;2023-03-01T05:12:11;-0.81;82.09
65460;DHT22;52058;49.822;6.754;2023-03-01T05:14:38;-0.83;82.00
65460;DHT22;52058;49.822;6.754;2023-03-01T05:17:06;-0.84;82.11
65460;DHT22;52058;49.822;6.754;2023-03-01T05:19:33;-0.85;82.14
65460;DHT22;52058;49.822;6.754;2023-03-01T05:21:59;-0.88;82.20
65460;DHT22;52058;49.822;6.754;2023-03-01T05:24:31;-0.92;82.10
65460;DHT22;52058;49.822;6.754;2023-03-01T05:26:58;-0.97;82.17
65460;DHT22;52058;49.822;6.754;2023-03-01T05:29:27;-1.02;82.31
65460;DHT22;52058;49.822;6.754;2023-03-01T05:31:55;-0.99;82.43
65460;DHT22;52058;49.822;6.754;2023-03-01T05:34:25;-1.04;82.50
65460;DHT22;52058;49.822;6.754;2023-03-01T05:36:52;-1.06;82.61
65460;DHT22;52058;49.822;6.754;2023-03-01T05:39:20;-1.05;82.64
65460;DHT22;52058;49.822;6.754;2023-03-01T05:41:47;-1.11;82.73
65460;DHT22;52058;49.822;6.754;2023-03-01T05:44:14;-1.11;82.94
65460;DHT22;52058;49.822;6.754;2023-03-01T05:46:41;-1.18;83.07
65460;DHT22;52058;49.822;6.754;2023-03-01T05:49:07;-1.13;83.16
65460;DHT22;52058;49.822;6.754;2023-03-01T05:51:35;-1.19;83.21
65460;DHT22;52058;49.822;6.754;2023-03-01T05:54:02;-1.25;83.29
65460;DHT22;52058;49.822;6.754;2023-03-01T05:56:32;-1.26;83.45
65460;DHT22;52058;49.822;6.754;2023-03-01T05:58:59;-1.34;83.65
65460;DHT22;52058;49.822;6.754;2023-03-01T06:01:25;-1.39;83.75
65460;DHT22;52058;49.822;6.754;2023-03-01T06:03:52;-1.40;83.79
65460;DHT22;52058;49.822;6.754;2023-03-01T06:06:18;-1.40;83.91
65460;DHT22;52058;49.822;6.754;2023-03-01T06:08:46;-1.42;83.87
65460;DHT22;52058;49.822;6.754;2023-03-01T06:11:13;-1.46;83.88
65460;DHT22;52058;49.822;6.754;2023-03-01T06:13:41;-1.50;83.94
65460;DHT22;52058;49.822;6.754;2023-03-01T06:16:08;-1.50;84.07
65460;DHT22;52058;49.822;6.754;2023-03-01T06:18:35;-1.52;84.13
65460;DHT22;52058;49.822;6.754;2023-03-01T06:21:01;-1.55;84.08
65460;DHT22;52058;49.822;6.754;2023-03-01T06:23:28;-1.52;84.25
65460;DHT22;52058;49.822;6.754;2023-03-01T06:25:56;-1.52;84.25
65460;DHT22;52058;49.822;6.754;2023-03-01T06:28:22;-1.47;84.28
65460;DHT22;52058;49.822;6.754;2023-03-01T06:30:49;-1.43;84.16
65460;DHT22;52058;49.822;6.754;2023-03-01T06:33:17;-1.39;84.12
65460;DHT22;52058;49.822;6.754;2023-03-01T06:35:45;-1.39;84.00
65460;DHT22;52058;49.822;6.754;2023-03-01T06:38:12;-1.35;84.03
65460;DHT22;52058;49.822;6.754;2023-03-01T06:40:40;-1.32;83.88
65460;DHT22;52058;49.822;6.754;2023-03-01T06:43:08;-1.26;84.06
65460;DHT22;52058;49.822;6.754;2023-03-01T06:45:35;-1.26;83.92
65460;DHT22;52058;49.822;6.754;2023-03-01T06:48:03;-1.24;83.93
65460;DHT22;52058;49.822;6.754;2023-03-01T06:50:30;-1.20;83.73
65460;DHT22;52058;49.822;6.754;2023-03-01T06:52:57;-1.18;83.54
65460;DHT22;52058;49.822;6.754;2023-03-01T06:55:24;-1.12;83.67
65460;DHT22;52058;49.822;6.754;2023-03-01T06:57:54;-1.13;83.51
65460;DHT22;52058;49.822;6.754;2023-03-01T07:00:24;-1.08;83.27
65460;DHT22;52058;49.822;6.754;2023-03-01T07:02:50;-1.06;83.26
65460;DHT22;52058;49.822;6.754;2023-03-01T07:05:17;-1.06;83.21
65460;DHT22;52058;49.822;6.754;2023-03-01T07:07:44;-0.99;83.12
65460;DHT22;52058;49.822;6.754;2023-03-01T07:10:11;-0.99;82.99
65460;DHT22;52058;49.822;6.754;2023-03-01T07:12:38;-0.97;83.04
65460;DHT22;52058;49.822;6.754;2023-03-01T07:15:08;-0.89;82.59
65460;DHT22;52058;49.822;6.754;2023-03-01T07:17:37;-0.88;82.47
65460;DHT22;52058;49.822;6.754;2023-03-01T07:20:04;-0.81;82.48
65460;DHT22;52058;49.822;6.754;2023-03-01T07:22:30;-0.81;82.49
65460;DHT22;52058;49.822;6.754;2023-03-01T07:24:57;-0.80;82.26
65460;DHT22;52058;49.822;6.754;2023-03-01T07:27:24;-0.78;82.33
65460;DHT22;52058;49.822;6.754;2023-03-01T07:29:50;-0.75;82.26
65460;DHT22;52058;49.822;6.754;2023-03-01T07:32:17;-0.71;82.19
65460;DHT22;52058;49.822;6.754;2023-03-01T07:34:45;-0.64;81.87
65460;DHT22;52058;49.822;6.754;2023-03-01T07:37:11;-0.60;81.66
65460;DHT22;52058;49.822;6.754;2023-03-01T07:39:38;-0.52;81.61
65460;DHT22;52058;49.822;6.754;2023-03-01T07:42:04;-0.40;81.42
65460;DHT22;52058;49.822;6.754;2023-03-01T07:44:31;-0.27;81.30
65460;DHT22;52058;49.822;6.754;2023-03-01T07:46:57;-0.19;80.88
65460;DHT22;52058;49.822;6.754;2023-03-01T07:49:24;-0.10;80.90
65460;DHT22;52058;49.822;6.754;2023-03-01T07:51:52;0.06;80.26
65460;DHT22;52058;49.822;6.754;2023-03-01T07:54:19;0.11;79.95
65460;DHT22;52058;49.822;6.754;2023-03-01T07:56:46;0.26;79.88
65460;DHT22;52058;49.822;6.754;2023-03-01T07:59:12;0.42;79.49
65460;DHT22;52058;49.822;6.754;2023-03-01T08:01:39;0.50;79.01
65460;DHT22;52058;49.822;6.754;2023-03-01T08:04:07;0.62;78.33
65460;DHT22;52058;49.822;6.754;2023-03-01T08:06:34;0.67;78.14
65460;DHT22;52058;49.822;6.754;2023-03-01T08:09:02;0.77;77.96
65460;DHT22;52058;49.822;6.754;2023-03-01T08:11:29;0.88;78.04
65460;DHT22;52058;49.822;6.754;2023-03-01T08:13:56;0.93;77.83
65460;DHT22;52058;49.822;6.754;2023-03-01T08:16:22;0.91;77.51
65460;DHT22;52058;49.822;6.754;2023-03-01T08:18:49;0.93;77.42
65460;DHT22;52058;49.822;6.754;2023-03-01T08:21:16;0.97;77.13
65460;DHT22;52058;49.822;6.754;2023-03-01T08:23:44;1.04;76.87
65460;DHT22;52058;49.822;6.754;2023-03-01T08:26:14;1.07;76.90
65460;DHT22;52058;49.822;6.754;2023-03-01T08:28:41;1.08;77.20
65460;DHT22;52058;49.822;6.754;2023-03-01T08:31:15;1.15;76.80
65460;DHT22;52058;49.822;6.754;2023-03-01T08:33:41;1.12;76.50
65460;DHT22;52058;49.822;6.754;2023-03-01T08:36:08;1.21;76.59
65460;DHT22;52058;49.822;6.754;2023-03-01T08:38:35;1.24;76.72
65460;DHT22;52058;49.822;6.754;2023-03-01T08:41:03;1.31;76.58
65460;DHT22;52058;49.822;6.754;2023-03-01T08:43:31;1.27;76.49
65460;DHT22;52058;49.822;6.754;2023-03-01T08:45:57;1.31;76.28
65460;DHT22;52058;49.822;6.754;2023-03-01T08:48:24;1.35;76.08
65460;DHT22;52058;49.822;6.754;2023-03-01T08:50:51;1.36;75.84
65460;DHT22;52058;49.822;6.754;2023-03-01T08:53:17;1.38;75.85
65460;DHT22;52058;49.822;6.754;2023-03-01T08:55:44;1.45;75.58
65460;DHT22;52058;49.822;6.754;2023-03-01T08:58:10;1.49;75.42
65460;DHT22;52058;49.822;6.754;2023-03-01T09:00:38;1.52;75.26
65460;DHT22;52058;49.822;6.754;2023-03-01T09:03:05;1.56;74.83
65460;DHT22;52058;49.822;6.754;2023-03-01T09:05:32;1.64;74.63
65460;DHT22;52058;49.822;6.754;2023-03-01T09:07:58;1.64;74.48
65460;DHT22;52058;49.822;6.754;2023-03-01T09:10:25;1.73;74.16
65460;DHT22;52058;49.822;6.754;2023-03-01T09:12:52;1.76;73.77
65460;DHT22;52058;49.822;6.754;2023-03-01T09:15:18;1.89;73.99
65460;DHT22;52058;49.822;6.754;2023-03-01T09:17:46;1.96;73.65
65460;DHT22;52058;49.822;6.754;2023-03-01T09:20:13;2.01;73.16
65460;DHT22;52058;49.822;6.754;2023-03-01T09:22:39;2.10;72.97
65460;DHT22;52058;49.822;6.754;2023-03-01T09:25:06;2.20;72.31
65460;DHT22;52058;49.822;6.754;2023-03-01T09:27:33;2.35;72.48
65460;DHT22;52058;49.822;6.754;2023-03-01T09:30:00;2.49;72.08
65460;DHT22;52058;49.822;6.754;2023-03-01T09:32:26;2.73;71.70
65460;DHT22;52058;49.822;6.754;2023-03-01T09:34:54;2.93;71.39
65460;DHT22;52058;49.822;6.754;2023-03-01T09:37:34;3.09;70.35
65460;DHT22;52058;49.822;6.754;2023-03-01T09:40:01;3.26;69.84
65460;DHT22;52058;49.822;6.754;2023-03-01T09:42:29;3.45;69.38
65460;DHT22;52058;49.822;6.754;2023-03-01T09:45:00;3.58;69.07
65460;DHT22;52058;49.822;6.754;2023-03-01T09:47:29;3.47;68.39
65460;DHT22;52058;49.822;6.754;2023-03-01T09:50:05;3.57;68.15
65460;DHT22;52058;49.822;6.754;2023-03-01T09:52:39;3.62;68.09
65460;DHT22;52058;49.822;6.754;2023-03-01T09:55:10;3.85;68.18
65460;DHT22;52058;49.822;6.754;2023-03-01T09:57:43;4.00;67.90
65460;DHT22;52058;49.822;6.754;2023-03-01T10:00:19;3.89;67.52
65460;DHT22;52058;49.822;6.754;2023-03-01T10:02:51;3.88;67.14
65460;DHT22;52058;49.822;6.754;2023-03-01T10:05:31;3.85;67.08
65460;DHT22;52058;49.822;6.754;2023-03-01T10:08:13;3.86;66.84
65460;DHT22;52058;49.822;6.754;2023-03-01T10:10:47;3.90;67.05
65460;DHT22;52058;49.822;6.754;2023-03-01T10:13:19;3.89;66.60
65460;DHT22;52058;49.822;6.754;2023-03-01T10:15:49;4.00;66.25
65460;DHT22;52058;49.822;6.754;2023-03-01T10:18:22;3.96;66.30
65460;DHT22;52058;49.822;6.754;2023-03-01T10:20:53;4.09;66.09
65460;DHT22;52058;49.822;6.754;2023-03-01T10:23:22;4.23;66.78
65460;DHT22;52058;49.822;6.754;2023-03-01T10:25:59;4.29;66.33
65460;DHT22;52058;49.822;6.754;2023-03-01T10:28:31;4.34;66.52
65460;DHT22;52058;49.822;6.754;2023-03-01T10:31:04;4.32;66.41
65460;DHT22;52058;49.822;6.754;2023-03-01T10:33:32;4.30;66.48
65460;DHT22;52058;49.822;6.754;2023-03-01T10:36:03;4.09;66.37
65460;DHT22;52058;49.822;6.754;2023-03-01T10:38:31;4.21;66.63
65460;DHT22;52058;49.822;6.754;2023-03-01T10:41:12;4.13;66.75
65460;DHT22;52058;49.822;6.754;2023-03-01T10:43:44;4.34;66.67
65460;DHT22;52058;49.822;6.754;2023-03-01T10:46:22;4.29;66.26
65460;DHT22;52058;49.822;6.754;2023-03-01T10:49:06;4.40;66.56
65460;DHT22;52058;49.822;6.754;2023-03-01T10:51:34;4.47;67.15
65460;DHT22;52058;49.822;6.754;2023-03-01T10:54:01;4.48;66.35
65460;DHT22;52058;49.822;6.754;2023-03-01T10:56:45;4.61;66.85
65460;DHT22;52058;49.822;6.754;2023-03-01T10:59:27;4.69;66.68
65460;DHT22;52058;49.822;6.754;2023-03-01T11:02:15;4.56;65.44
65460;DHT22;52058;49.822;6.754;2023-03-01T11:04:56;4.57;65.97
65460;DHT22;52058;49.822;6.754;2023-03-01T11:07:24;4.69;66.01
65460;DHT22;52058;49.822;6.754;2023-03-01T11:09:51;4.68;66.07
65460;DHT22;52058;49.822;6.754;2023-03-01T11:12:18;4.71;66.05
65460;DHT22;52058;49.822;6.754;2023-03-01T11:14:49;4.72;65.97
65460;DHT22;52058;49.822;6.754;2023-03-01T11:17:18;4.75;66.04
65460;DHT22;52058;49.822;6.754;2023-03-01T11:19:59;4.89;65.44
65460;DHT22;52058;49.822;6.754;2023-03-01T11:22:28;4.81;65.57
65460;DHT22;52058;49.822;6.754;2023-03-01T11:24:56;4.71;65.56
65460;DHT22;52058;49.822;6.754;2023-03-01T11:27:26;4.91;65.74
65460;DHT22;52058;49.822;6.754;2023-03-01T11:29:57;4.96;65.21
65460;DHT22;52058;49.822;6.754;2023-03-01T11:32:29;5.04;65.40
65460;DHT22;52058;49.822;6.754;2023-03-01T11:35:01;5.12;65.27
65460;DHT22;52058;49.822;6.754;2023-03-01T11:37:34;5.23;64.90
65460;DHT22;52058;49.822;6.754;2023-03-01T11:40:11;5.32;64.93
65460;DHT22;52058;49.822;6.754;2023-03-01T11:42:56;5.33;64.63
65460;DHT22;52058;49.822;6.754;2023-03-01T11:45:31;5.33;64.36
65460;DHT22;52058;49.822;6.754;2023-03-01T11:48:24;5.44;64.56
65460;DHT22;52058;49.822;6.754;2023-03-01T11:50:55;5.53;64.44
65460;DHT22;52058;49.822;6.754;2023-03-01T11:53:33;5.50;63.81
65460;DHT22;52058;49.822;6.754;2023-03-01T11:56:10;5.60;64.01
65460;DHT22;52058;49.822;6.754;2023-03-01T11:58:52;5.68;63.93
65460;DHT22;52058;49.822;6.754;2023-03-01T12:01:50;5.77;63.74
65460;DHT22;52058;49.822;6.754;2023-03-01T12:07:21;5.91;63.22
65460;DHT22;52058;49.822;6.754;2023-03-01T12:10:03;5.84;63.12
65460;DHT22;52058;49.822;6.754;2023-03-01T12:12:46;6.01;63.31
65460;DHT22;52058;49.822;6.754;2023-03-01T12:15:42;6.04;62.97
65460;DHT22;52058;49.822;6.754;2023-03-01T12:18:27;6.04;62.50
65460;DHT22;52058;49.822;6.754;2023-03-01T12:21:00;6.05;62.73
65460;DHT22;52058;49.822;6.754;2023-03-01T12:23:52;6.11;63.04
65460;DHT22;52058;49.822;6.754;2023-03-01T12:26:28;6.19;62.86
65460;DHT22;52058;49.822;6.754;2023-03-01T12:29:03;6.28;62.93
65460;DHT22;52058;49.822;6.754;2023-03-01T12:32:00;6.45;63.21
65460;DHT22;52058;49.822;6.754;2023-03-01T12:34:41;6.50;62.36
65460;DHT22;52058;49.822;6.754;2023-03-01T12:37:21;6.52;61.90
65460;DHT22;52058;49.822;6.754;2023-03-01T12:39:59;6.53;62.06
65460;DHT22;52058;49.822;6.754;2023-03-01T12:42:33;6.58;62.12
65460;DHT22;52058;49.822;6.754;2023-03-01T12:45:16;6.60;62.03
65460;DHT22;52058;49.822;6.754;2023-03-01T12:47:58;6.63;61.84
65460;DHT22;52058;49.822;6.754;2023-03-01T12:50:40;6.79;61.78
65460;DHT22;52058;49.822;6.754;2023-03-01T12:53:17;6.87;61.34
65460;DHT22;52058;49.822;6.754;2023-03-01T12:55:46;6.88;61.56
65460;DHT22;52058;49.822;6.754;2023-03-01T12:58:22;7.09;62.23
65460;DHT22;52058;49.822;6.754;2023-03-01T13:01:01;6.94;60.68
65460;DHT22;52058;49.822;6.754;2023-03-01T13:03:32;6.85;60.91
65460;DHT22;52058;49.822;6.754;2023-03-01T13:06:08;6.95;61.59
65460;DHT22;52058;49.822;6.754;2023-03-01T13:08:42;6.97;60.96
65460;DHT22;52058;49.822;6.754;2023-03-01T13:11:16;7.01;60.72
65460;DHT22;52058;49.822;6.754;2023-03-01T13:13:45;7.00;60.18
65460;DHT22;52058;49.822;6.754;2023-03-01T13:16:22;7.04;60.22
65460;DHT22;52058;49.822;6.754;2023-03-01T13:19:10;7.11;60.58
65460;DHT22;52058;49.822;6.754;2023-03-01T13:21:38;7.26;59.82
65460;DHT22;52058;49.822;6.754;2023-03-01T13:24:23;7.48;59.61
65460;DHT22;52058;49.822;6.754;2023-03-01T13:27:21;7.84;59.11
65460;DHT22;52058;49.822;6.754;2023-03-01T13:29:52;7.90;57.65
65460;DHT22;52058;49.822;6.754;2023-03-01T13:32:22;8.61;57.08
65460;DHT22;52058;49.822;6.754;2023-03-01T13:34:59;8.83;55.80
65460;DHT22;52058;49.822;6.754;2023-03-01T13:37:29;9.99;53.95
65460;DHT22;52058;49.822;6.754;2023-03-01T13:40:02;11.36;51.29
65460;DHT22;52058;49.822;6.754;2023-03-01T13:42:39;13.92;46.64
65460;DHT22;52058;49.822;6.754;2023-03-01T13:45:20;15.84;41.72
65460;DHT22;52058;49.822;6.754;2023-03-01T13:47:51;17.08;40.48
65460;DHT22;52058;49.822;6.754;2023-03-01T13:50:21;17.11;38.85
65460;DHT22;52058;49.822;6.754;2023-03-01T13:52:53;17.10;38.47
65460;DHT22;52058;49.822;6.754;2023-03-01T13:55:24;17.86;38.28
65460;DHT22;52058;49.822;6.754;2023-03-01T13:57:54;17.76;38.13
65460;DHT22;52058;49.822;6.754;2023-03-01T14:00:39;17.51;38.06
65460;DHT22;52058;49.822;6.754;2023-03-01T14:03:10;18.57;36.77
65460;DHT22;52058;49.822;6.754;2023-03-01T14:05:38;19.24;35.46
65460;DHT22;52058;49.822;6.754;2023-03-01T14:08:13;18.68;35.96
65460;DHT22;52058;49.822;6.754;2023-03-01T14:10:53;19.51;35.24
65460;DHT22;52058;49.822;6.754;2023-03-01T14:13:30;18.37;36.12
65460;DHT22;52058;49.822;6.754;2023-03-01T14:16:12;18.34;36.44
65460;DHT22;52058;49.822;6.754;2023-03-01T14:18:47;18.02;36.45
65460;DHT22;52058;49.822;6.754;2023-03-01T14:21:18;18.12;36.64
65460;DHT22;52058;49.822;6.754;2023-03-01T14:23:45;18.06;36.47
65460;DHT22;52058;49.822;6.754;2023-03-01T14:26:12;17.06;37.49
65460;DHT22;52058;49.822;6.754;2023-03-01T14:28:39;16.26;39.30
65460;DHT22;52058;49.822;6.754;2023-03-01T14:31:36;15.83;39.57
65460;DHT22;52058;49.822;6.754;2023-03-01T14:34:04;15.13;40.24
65460;DHT22;52058;49.822;6.754;2023-03-01T14:36:33;14.37;41.49
65460;DHT22;52058;49.822;6.754;2023-03-01T14:39:00;13.95;42.44
65460;DHT22;52058;49.822;6.754;2023-03-01T14:41:33;13.27;43.60
65460;DHT22;52058;49.822;6.754;2023-03-01T14:44:03;13.00;44.11
65460;DHT22;52058;49.822;6.754;2023-03-01T14:46:33;12.65;44.51
65460;DHT22;52058;49.822;6.754;2023-03-01T14:49:04;12.93;45.32
65460;DHT22;52058;49.822;6.754;2023-03-01T14:51:36;12.55;44.96
65460;DHT22;52058;49.822;6.754;2023-03-01T14:54:10;12.32;45.11
65460;DHT22;52058;49.822;6.754;2023-03-01T14:56:45;12.18;45.65
65460;DHT22;52058;49.822;6.754;2023-03-01T14:59:12;12.18;46.01
65460;DHT22;52058;49.822;6.754;2023-03-01T15:01:40;11.90;45.56
65460;DHT22;52058;49.822;6.754;2023-03-01T15:04:11;11.98;46.13
65460;DHT22;52058;49.822;6.754;2023-03-01T15:06:38;11.73;46.29
65460;DHT22;52058;49.822;6.754;2023-03-01T15:09:06;11.77;46.53
65460;DHT22;52058;49.822;6.754;2023-03-01T15:11:34;11.65;46.96
65460;DHT22;52058;49.822;6.754;2023-03-01T15:14:25;11.33;47.67
65460;DHT22;52058;49.822;6.754;2023-03-01T15:16:52;11.32;47.78
65460;DHT22;52058;49.822;6.754;2023-03-01T15:19:28;10.97;47.49
65460;DHT22;52058;49.822;6.754;2023-03-01T15:21:55;11.11;47.45
65460;DHT22;52058;49.822;6.754;2023-03-01T15:24:24;10.97;47.47
65460;DHT22;52058;49.822;6.754;2023-03-01T15:26:53;10.87;47.73
65460;DHT22;52058;49.822;6.754;2023-03-01T15:29:24;10.70;47.61
65460;DHT22;52058;49.822;6.754;2023-03-01T15:31:58;10.91;47.62
65460;DHT22;52058;49.822;6.754;2023-03-01T15:34:28;11.22;47.06
65460;DHT22;52058;49.822;6.754;2023-03-01T15:36:59;11.56;46.51
65460;DHT22;52058;49.822;6.754;2023-03-01T15:39:31;11.43;45.91
65460;DHT22;52058;49.822;6.754;2023-03-01T15:42:03;11.30;46.35
65460;DHT22;52058;49.822;6.754;2023-03-01T15:44:32;10.87;46.64
65460;DHT22;52058;49.822;6.754;2023-03-01T15:46:59;10.57;47.69
65460;DHT22;52058;49.822;6.754;2023-03-01T15:49:35;10.40;47.59
65460;DHT22;52058;49.822;6.754;2023-03-01T15:52:02;10.26;47.62
65460;DHT22;52058;49.822;6.754;2023-03-01T15:54:29;10.21;47.82
65460;DHT22;52058;49.822;6.754;2023-03-01T15:56:56;9.92;47.61
65460;DHT22;52058;49.822;6.754;2023-03-01T15:59:22;9.71;48.32